sensor_id;sensor_type;location;lat;lon;timestamp;temperature;humidity
17200;DHT22;8716;52.268;20.968;2023-03-01T00:01:47;-0.40;99.90
17200;DHT22;8716;52.268;20.968;2023-03-01T00:04:16;-0.40;99.90
17200;DHT22;8716;52.268;20.968;2023-03-01T00:06:44;-0.30;99.90
17200;DHT22;8716;52.268;20.968;2023-03-01T00:09:13;-0.40;99.90
17200;DHT22;8716;52.268;20.968;2023-03-01T00:11:42;-0.40;99.90
17200;DHT22;8716;52.268;20.968;2023-03-01T00:14:12;-0.40;99.90
17200;DHT22;8716;52.268;20.968;2023-03-01T00:16:47;-0.40;99.90
17200;DHT22;8716;52.268;20.968;2023-03-01T00:19:23;-0.40;99.90
17200;DHT22;8716;52.268;20.968;2023-03-01T00:21:51;-0.40;99.90
17200;DHT22;8716;52.268;20.968;2023-03-01T00:24:20;-0.30;99.90
17200;DHT22;8716;52.268;20.968;2023-03-01T00:26:48;-0.50;99.90
17200;DHT22;8716;52.268;20.968;2023-03-01T00:29:21;-0.40;99.90
17200;DHT22;8716;52.268;20.968;2023-03-01T00:31:49;-0.40;99.90
17200;DHT22;8716;52.268;20.968;2023-03-01T00:34:20;-0.40;99.90
17200;DHT22;8716;52.268;20.968;2023-03-01T00:36:48;-0.40;99.90
17200;DHT22;8716;52.268;20.968;2023-03-01T00:39:16;-0.40;99.90
17200;DHT22;8716;52.268;20.968;2023-03-01T00:41:45;-0.40;99.90
17200;DHT22;8716;52.268;20.968;2023-03-01T00:44:13;-0.40;99.90
17200;DHT22;8716;52.268;20.968;2023-03-01T00:46:43;-0.40;99.90
17200;DHT22;8716;52.268;20.968;2023-03-01T00:49:11;-0.40;99.90
17200;DHT22;8716;52.268;20.968;2023-03-01T00:51:39;-0.40;99.90
17200;DHT22;8716;52.268;20.968;2023-03-01T00:54:08;-0.40;99.90
17200;DHT22;8716;52.268;20.968;2023-03-01T00:56:40;-0.40;99.90
17200;DHT22;8716;52.268;20.968;2023-03-01T00:59:08;-0.30;99.90
17200;DHT22;8716;52.268;20.968;2023-03-01T01:01:38;-0.30;99.90
17200;DHT22;8716;52.268;20.968;2023-03-01T01:04:10;-0.40;99.90
17200;DHT22;8716;52.268;20.968;2023-03-01T01:06:40;-0.40;99.90
17200;DHT22;8716;52.268;20.968;2023-03-01T01:09:12;-0.40;99.90
17200;DHT22;8716;52.268;20.968;2023-03-01T01:11:44;-0.50;99.90
17200;DHT22;8716;52.268;20.968;2023-03-01T01:14:13;-0.40;99.90
17200;DHT22;8716;52.268;20.968;2023-03-01T01:16:42;-0.40;99.90
17200;DHT22;8716;52.268;20.968;2023-03-01T01:19:12;-0.30;99.90
17200;DHT22;8716;52.268;20.968;2023-03-01T01:21:41;-0.40;99.90
17200;DHT22;8716;52.268;20.968;2023-03-01T01:24:11;-0.40;99.90
17200;DHT22;8716;52.268;20.968;2023-03-01T01:26:39;-0.40;99.90
17200;DHT22;8716;52.268;20.968;2023-03-01T01:29:08;-0.40;99.90
17200;DHT22;8716;52.268;20.968;2023-03-01T01:31:37;-0.40;99.90
17200;DHT22;8716;52.268;20.968;2023-03-01T01:34:08;-0.40;99.90
17200;DHT22;8716;52.268;20.968;2023-03-01T01:36:39;-0.40;99.90
17200;DHT22;8716;52.268;20.968;2023-03-01T01:39:10;-0.40;99.90
17200;DHT22;8716;52.268;20.968;2023-03-01T01:41:41;-0.40;99.90
17200;DHT22;8716;52.268;20.968;2023-03-01T01:44:15;-0.40;99.90
17200;DHT22;8716;52.268;20.968;2023-03-01T01:46:46;-0.40;99.90
17200;DHT22;8716;52.268;20.968;2023-03-01T01:49:23;-0.40;99.90
17200;DHT22;8716;52.268;20.968;2023-03-01T01:51:57;-0.40;99.90
17200;DHT22;8716;52.268;20.968;2023-03-01T01:54:32;-0.40;99.90
17200;DHT22;8716;52.268;20.968;2023-03-01T01:57:05;-0.40;99.90
17200;DHT22;8716;52.268;20.968;2023-03-01T01:59:35;-0.40;99.90
17200;DHT22;8716;52.268;20.968;2023-03-01T02:02:06;-0.40;99.90
17200;DHT22;8716;52.268;20.968;2023-03-01T02:04:35;-0.40;99.90
17200;DHT22;8716;52.268;20.968;2023-03-01T02:07:10;-0.40;99.90
17200;DHT22;8716;52.268;20.968;2023-03-01T02:09:41;-0.50;99.90
17200;DHT22;8716;52.268;20.968;2023-03-01T02:12:13;-0.50;99.90
17200;DHT22;8716;52.268;20.968;2023-03-01T02:14:41;-0.50;99.90
17200;DHT22;8716;52.268;20.968;2023-03-01T02:17:14;-0.50;99.90
17200;DHT22;8716;52.268;20.968;2023-03-01T02:19:52;-0.50;99.90
17200;DHT22;8716;52.268;20.968;2023-03-01T02:22:26;-0.50;99.90
17200;DHT22;8716;52.268;20.968;2023-03-01T02:25:08;-0.60;99.90
17200;DHT22;8716;52.268;20.968;2023-03-01T02:27:45;-0.60;99.90
17200;DHT22;8716;52.268;20.968;2023-03-01T02:30:18;-0.60;99.90
17200;DHT22;8716;52.268;20.968;2023-03-01T02:32:47;-0.60;99.90
17200;DHT22;8716;52.268;20.968;2023-03-01T02:35:18;-0.60;99.90
17200;DHT22;8716;52.268;20.968;2023-03-01T02:37:48;-0.60;99.90
17200;DHT22;8716;52.268;20.968;2023-03-01T02:40:17;-0.70;99.90
17200;DHT22;8716;52.268;20.968;2023-03-01T02:42:51;-0.70;99.90
17200;DHT22;8716;52.268;20.968;2023-03-01T02:45:22;-0.70;99.90
17200;DHT22;8716;52.268;20.968;2023-03-01T02:47:54;-0.70;99.90
17200;DHT22;8716;52.268;20.968;2023-03-01T02:50:42;-0.60;99.90
17200;DHT22;8716;52.268;20.968;2023-03-01T02:53:19;-0.70;99.90
17200;DHT22;8716;52.268;20.968;2023-03-01T02:55:50;-0.70;99.90
17200;DHT22;8716;52.268;20.968;2023-03-01T02:58:19;-0.80;99.90
17200;DHT22;8716;52.268;20.968;2023-03-01T03:00:51;-0.80;99.90
17200;DHT22;8716;52.268;20.968;2023-03-01T03:03:21;-0.80;99.90
17200;DHT22;8716;52.268;20.968;2023-03-01T03:05:50;-0.80;99.90
17200;DHT22;8716;52.268;20.968;2023-03-01T03:08:18;-0.80;99.90
17200;DHT22;8716;52.268;20.968;2023-03-01T03:10:52;-0.70;99.90
17200;DHT22;8716;52.268;20.968;2023-03-01T03:13:22;-0.70;99.90
17200;DHT22;8716;52.268;20.968;2023-03-01T03:15:56;-0.70;99.90
17200;DHT22;8716;52.268;20.968;2023-03-01T03:18:25;-0.70;99.90
17200;DHT22;8716;52.268;20.968;2023-03-01T03:20:54;-0.70;99.90
17200;DHT22;8716;52.268;20.968;2023-03-01T03:23:22;-0.70;99.90
17200;DHT22;8716;52.268;20.968;2023-03-01T03:25:51;-0.70;99.90
17200;DHT22;8716;52.268;20.968;2023-03-01T03:28:19;-0.70;99.90
17200;DHT22;8716;52.268;20.968;2023-03-01T03:30:47;-0.70;99.90
17200;DHT22;8716;52.268;20.968;2023-03-01T03:33:18;-0.70;99.90
17200;DHT22;8716;52.268;20.968;2023-03-01T03:35:48;-0.70;99.90
17200;DHT22;8716;52.268;20.968;2023-03-01T03:38:20;-0.60;99.90
17200;DHT22;8716;52.268;20.968;2023-03-01T03:40:52;-0.70;99.90
17200;DHT22;8716;52.268;20.968;2023-03-01T03:43:22;-0.60;99.90
17200;DHT22;8716;52.268;20.968;2023-03-01T03:45:54;-0.70;99.90
17200;DHT22;8716;52.268;20.968;2023-03-01T03:48:26;-0.70;99.90
17200;DHT22;8716;52.268;20.968;2023-03-01T03:50:55;-0.70;99.90
17200;DHT22;8716;52.268;20.968;2023-03-01T03:53:25;-0.80;99.90
17200;DHT22;8716;52.268;20.968;2023-03-01T03:55:54;-0.70;99.90
17200;DHT22;8716;52.268;20.968;2023-03-01T03:58:24;-0.70;99.90
17200;DHT22;8716;52.268;20.968;2023-03-01T04:00:54;-0.80;99.90
17200;DHT22;8716;52.268;20.968;2023-03-01T04:03:26;-0.80;99.90
17200;DHT22;8716;52.268;20.968;2023-03-01T04:05:57;-0.70;99.90
17200;DHT22;8716;52.268;20.968;2023-03-01T04:08:26;-0.80;99.90
17200;DHT22;8716;52.268;20.968;2023-03-01T04:10:58;-0.80;99.90
17200;DHT22;8716;52.268;20.968;2023-03-01T04:13:27;-0.70;99.90
17200;DHT22;8716;52.268;20.968;2023-03-01T04:15:55;-0.80;99.90
17200;DHT22;8716;52.268;20.968;2023-03-01T04:18:25;-0.70;99.90
17200;DHT22;8716;52.268;20.968;2023-03-01T04:20:54;-0.70;99.90
17200;DHT22;8716;52.268;20.968;2023-03-01T04:23:23;-0.70;99.90
17200;DHT22;8716;52.268;20.968;2023-03-01T04:25:54;-0.70;99.90
17200;DHT22;8716;52.268;20.968;2023-03-01T04:28:24;-0.70;99.90
17200;DHT22;8716;52.268;20.968;2023-03-01T04:30:53;-0.70;99.90
17200;DHT22;8716;52.268;20.968;2023-03-01T04:33:23;-0.70;99.90
17200;DHT22;8716;52.268;20.968;2023-03-01T04:35:53;-0.80;99.90
17200;DHT22;8716;52.268;20.968;2023-03-01T04:38:21;-0.80;99.90
17200;DHT22;8716;52.268;20.968;2023-03-01T04:40:49;-0.80;99.90
17200;DHT22;8716;52.268;20.968;2023-03-01T04:43:18;-0.80;99.90
17200;DHT22;8716;52.268;20.968;2023-03-01T04:45:46;-0.80;99.90
17200;DHT22;8716;52.268;20.968;2023-03-01T04:48:14;-0.80;99.90
17200;DHT22;8716;52.268;20.968;2023-03-01T04:50:43;-0.80;99.90
17200;DHT22;8716;52.268;20.968;2023-03-01T04:53:12;-0.80;99.90
17200;DHT22;8716;52.268;20.968;2023-03-01T04:55:40;-0.80;99.90
17200;DHT22;8716;52.268;20.968;2023-03-01T04:58:09;-0.70;99.90
17200;DHT22;8716;52.268;20.968;2023-03-01T05:00:37;-0.70;99.90
17200;DHT22;8716;52.268;20.968;2023-03-01T05:03:05;-0.70;99.90
17200;DHT22;8716;52.268;20.968;2023-03-01T05:05:35;-0.70;99.90
17200;DHT22;8716;52.268;20.968;2023-03-01T05:08:06;-0.60;99.90
17200;DHT22;8716;52.268;20.968;2023-03-01T05:10:36;-0.60;99.90
17200;DHT22;8716;52.268;20.968;2023-03-01T05:13:08;-0.70;99.90
17200;DHT22;8716;52.268;20.968;2023-03-01T05:15:36;-0.70;99.90
17200;DHT22;8716;52.268;20.968;2023-03-01T05:18:07;-0.70;99.90
17200;DHT22;8716;52.268;20.968;2023-03-01T05:20:38;-0.70;99.90
17200;DHT22;8716;52.268;20.968;2023-03-01T05:23:06;-0.70;99.90
17200;DHT22;8716;52.268;20.968;2023-03-01T05:25:36;-0.70;99.90
17200;DHT22;8716;52.268;20.968;2023-03-01T05:28:09;-0.70;99.90
17200;DHT22;8716;52.268;20.968;2023-03-01T05:30:38;-0.70;99.90
17200;DHT22;8716;52.268;20.968;2023-03-01T05:33:07;-0.70;99.90
17200;DHT22;8716;52.268;20.968;2023-03-01T05:35:41;-0.70;99.90
17200;DHT22;8716;52.268;20.968;2023-03-01T05:38:10;-0.70;99.90
17200;DHT22;8716;52.268;20.968;2023-03-01T05:40:42;-0.70;99.90
17200;DHT22;8716;52.268;20.968;2023-03-01T05:43:11;-0.70;99.90
17200;DHT22;8716;52.268;20.968;2023-03-01T05:45:40;-0.80;99.90
17200;DHT22;8716;52.268;20.968;2023-03-01T05:48:09;-0.60;99.90
17200;DHT22;8716;52.268;20.968;2023-03-01T05:50:40;-0.70;99.90
17200;DHT22;8716;52.268;20.968;2023-03-01T05:53:12;-0.60;99.90
17200;DHT22;8716;52.268;20.968;2023-03-01T05:55:43;-0.60;99.90
17200;DHT22;8716;52.268;20.968;2023-03-01T05:58:16;-0.60;99.90
17200;DHT22;8716;52.268;20.968;2023-03-01T06:00:46;-0.60;99.90
17200;DHT22;8716;52.268;20.968;2023-03-01T06:03:16;-0.60;99.90
17200;DHT22;8716;52.268;20.968;2023-03-01T06:05:45;-0.50;99.90
17200;DHT22;8716;52.268;20.968;2023-03-01T06:08:13;-0.50;99.90
17200;DHT22;8716;52.268;20.968;2023-03-01T06:10:46;-0.40;99.90
17200;DHT22;8716;52.268;20.968;2023-03-01T06:13:15;-0.40;99.90
17200;DHT22;8716;52.268;20.968;2023-03-01T06:15:43;-0.30;99.90
17200;DHT22;8716;52.268;20.968;2023-03-01T06:18:12;-0.30;99.90
17200;DHT22;8716;52.268;20.968;2023-03-01T06:20:40;-0.20;99.90
17200;DHT22;8716;52.268;20.968;2023-03-01T06:23:08;-0.10;99.90
17200;DHT22;8716;52.268;20.968;2023-03-01T06:25:37;0.00;99.90
17200;DHT22;8716;52.268;20.968;2023-03-01T06:28:07;0.00;99.90
17200;DHT22;8716;52.268;20.968;2023-03-01T06:30:35;0.10;99.90
17200;DHT22;8716;52.268;20.968;2023-03-01T06:33:03;0.20;99.90
17200;DHT22;8716;52.268;20.968;2023-03-01T06:35:34;0.30;99.90
17200;DHT22;8716;52.268;20.968;2023-03-01T06:38:03;0.30;99.90
17200;DHT22;8716;52.268;20.968;2023-03-01T06:40:32;0.50;99.90
17200;DHT22;8716;52.268;20.968;2023-03-01T06:43:02;0.50;99.90
17200;DHT22;8716;52.268;20.968;2023-03-01T06:45:35;0.60;99.90
17200;DHT22;8716;52.268;20.968;2023-03-01T06:48:04;0.80;99.90
17200;DHT22;8716;52.268;20.968;2023-03-01T06:50:35;0.80;99.90
17200;DHT22;8716;52.268;20.968;2023-03-01T06:53:04;0.80;99.90
17200;DHT22;8716;52.268;20.968;2023-03-01T06:55:33;0.90;99.90
17200;DHT22;8716;52.268;20.968;2023-03-01T06:58:03;1.00;99.90
17200;DHT22;8716;52.268;20.968;2023-03-01T07:00:31;1.10;99.90
17200;DHT22;8716;52.268;20.968;2023-03-01T07:03:02;1.20;99.90
17200;DHT22;8716;52.268;20.968;2023-03-01T07:05:30;1.20;99.90
17200;DHT22;8716;52.268;20.968;2023-03-01T07:07:58;1.30;99.90
17200;DHT22;8716;52.268;20.968;2023-03-01T07:10:27;1.40;99.90
17200;DHT22;8716;52.268;20.968;2023-03-01T07:12:56;1.50;99.90
17200;DHT22;8716;52.268;20.968;2023-03-01T07:15:25;1.60;99.90
17200;DHT22;8716;52.268;20.968;2023-03-01T07:17:53;1.70;99.90
17200;DHT22;8716;52.268;20.968;2023-03-01T07:20:23;1.80;99.90
17200;DHT22;8716;52.268;20.968;2023-03-01T07:22:53;2.00;99.90
17200;DHT22;8716;52.268;20.968;2023-03-01T07:25:22;2.00;99.90
17200;DHT22;8716;52.268;20.968;2023-03-01T07:27:50;2.10;99.90
17200;DHT22;8716;52.268;20.968;2023-03-01T07:30:20;2.20;99.90
17200;DHT22;8716;52.268;20.968;2023-03-01T07:32:48;2.20;99.90
17200;DHT22;8716;52.268;20.968;2023-03-01T07:35:18;2.30;99.90
17200;DHT22;8716;52.268;20.968;2023-03-01T07:37:48;2.30;99.90
17200;DHT22;8716;52.268;20.968;2023-03-01T07:40:17;2.40;99.90
17200;DHT22;8716;52.268;20.968;2023-03-01T07:42:45;2.50;99.90
17200;DHT22;8716;52.268;20.968;2023-03-01T07:45:13;2.60;99.90
17200;DHT22;8716;52.268;20.968;2023-03-01T07:47:42;2.70;99.90
17200;DHT22;8716;52.268;20.968;2023-03-01T07:50:11;2.70;99.90
17200;DHT22;8716;52.268;20.968;2023-03-01T07:52:40;2.80;99.90
17200;DHT22;8716;52.268;20.968;2023-03-01T07:55:10;3.00;99.90
17200;DHT22;8716;52.268;20.968;2023-03-01T07:57:38;3.10;99.90
17200;DHT22;8716;52.268;20.968;2023-03-01T08:00:10;3.20;99.90
17200;DHT22;8716;52.268;20.968;2023-03-01T08:02:39;3.30;99.90
17200;DHT22;8716;52.268;20.968;2023-03-01T08:05:09;3.40;99.90
17200;DHT22;8716;52.268;20.968;2023-03-01T08:07:38;3.40;99.90
17200;DHT22;8716;52.268;20.968;2023-03-01T08:10:07;3.50;99.90
17200;DHT22;8716;52.268;20.968;2023-03-01T08:12:36;3.60;99.90
17200;DHT22;8716;52.268;20.968;2023-03-01T08:15:08;3.80;99.90
17200;DHT22;8716;52.268;20.968;2023-03-01T08:17:37;3.90;99.90
17200;DHT22;8716;52.268;20.968;2023-03-01T08:20:06;4.00;99.90
17200;DHT22;8716;52.268;20.968;2023-03-01T08:22:34;4.20;99.90
17200;DHT22;8716;52.268;20.968;2023-03-01T08:25:03;4.40;99.90
17200;DHT22;8716;52.268;20.968;2023-03-01T08:27:32;4.60;99.90
17200;DHT22;8716;52.268;20.968;2023-03-01T08:30:01;4.80;99.90
17200;DHT22;8716;52.268;20.968;2023-03-01T08:32:32;5.00;99.90
17200;DHT22;8716;52.268;20.968;2023-03-01T08:35:03;5.20;99.90
17200;DHT22;8716;52.268;20.968;2023-03-01T08:37:31;5.40;99.90
17200;DHT22;8716;52.268;20.968;2023-03-01T08:40:00;5.60;99.90
17200;DHT22;8716;52.268;20.968;2023-03-01T08:42:28;5.80;99.90
17200;DHT22;8716;52.268;20.968;2023-03-01T08:44:56;6.00;99.90
17200;DHT22;8716;52.268;20.968;2023-03-01T08:47:26;6.30;99.90
17200;DHT22;8716;52.268;20.968;2023-03-01T08:49:54;6.50;99.90
17200;DHT22;8716;52.268;20.968;2023-03-01T08:52:23;6.70;99.90
17200;DHT22;8716;52.268;20.968;2023-03-01T08:54:51;7.30;99.90
17200;DHT22;8716;52.268;20.968;2023-03-01T08:57:20;8.50;99.90
17200;DHT22;8716;52.268;20.968;2023-03-01T08:59:48;10.00;99.90
17200;DHT22;8716;52.268;20.968;2023-03-01T09:02:17;11.20;99.90
17200;DHT22;8716;52.268;20.968;2023-03-01T09:04:47;12.20;99.90
17200;DHT22;8716;52.268;20.968;2023-03-01T09:07:15;13.10;99.90
17200;DHT22;8716;52.268;20.968;2023-03-01T09:09:44;13.60;99.00
17200;DHT22;8716;52.268;20.968;2023-03-01T09:12:12;14.00;97.50
17200;DHT22;8716;52.268;20.968;2023-03-01T09:14:40;14.80;95.10
17200;DHT22;8716;52.268;20.968;2023-03-01T09:17:11;15.50;94.10
17200;DHT22;8716;52.268;20.968;2023-03-01T09:19:42;16.10;91.80
17200;DHT22;8716;52.268;20.968;2023-03-01T09:22:14;16.60;90.00
17200;DHT22;8716;52.268;20.968;2023-03-01T09:24:43;17.10;87.20
17200;DHT22;8716;52.268;20.968;2023-03-01T09:27:11;17.40;84.20
17200;DHT22;8716;52.268;20.968;2023-03-01T09:29:41;17.60;82.10
17200;DHT22;8716;52.268;20.968;2023-03-01T09:32:10;17.70;81.80
17200;DHT22;8716;52.268;20.968;2023-03-01T09:34:38;17.50;80.60
17200;DHT22;8716;52.268;20.968;2023-03-01T09:37:24;17.20;80.00
17200;DHT22;8716;52.268;20.968;2023-03-01T09:39:52;17.30;80.30
17200;DHT22;8716;52.268;20.968;2023-03-01T09:42:24;17.50;79.70
17200;DHT22;8716;52.268;20.968;2023-03-01T09:44:55;17.80;79.70
17200;DHT22;8716;52.268;20.968;2023-03-01T09:47:27;18.20;77.70
17200;DHT22;8716;52.268;20.968;2023-03-01T09:50:02;18.60;76.80
17200;DHT22;8716;52.268;20.968;2023-03-01T09:52:41;19.00;75.50
17200;DHT22;8716;52.268;20.968;2023-03-01T09:55:12;19.60;73.40
17200;DHT22;8716;52.268;20.968;2023-03-01T09:57:47;20.00;71.50
17200;DHT22;8716;52.268;20.968;2023-03-01T10:00:30;20.50;69.30
17200;DHT22;8716;52.268;20.968;2023-03-01T10:03:11;21.00;68.20
17200;DHT22;8716;52.268;20.968;2023-03-01T10:05:58;21.70;65.40
17200;DHT22;8716;52.268;20.968;2023-03-01T10:08:38;22.00;63.10
17200;DHT22;8716;52.268;20.968;2023-03-01T10:11:19;22.00;61.30
17200;DHT22;8716;52.268;20.968;2023-03-01T10:13:55;22.10;61.50
17200;DHT22;8716;52.268;20.968;2023-03-01T10:16:34;22.50;61.20
17200;DHT22;8716;52.268;20.968;2023-03-01T10:19:06;23.10;59.90
17200;DHT22;8716;52.268;20.968;2023-03-01T10:21:41;23.30;60.10
17200;DHT22;8716;52.268;20.968;2023-03-01T10:24:14;23.70;59.10
17200;DHT22;8716;52.268;20.968;2023-03-01T10:26:51;24.10;57.60
17200;DHT22;8716;52.268;20.968;2023-03-01T10:29:30;24.20;56.40
17200;DHT22;8716;52.268;20.968;2023-03-01T10:32:03;24.30;56.80
17200;DHT22;8716;52.268;20.968;2023-03-01T10:34:37;24.30;56.10
17200;DHT22;8716;52.268;20.968;2023-03-01T10:37:14;24.30;55.90
17200;DHT22;8716;52.268;20.968;2023-03-01T10:39:57;24.30;55.40
17200;DHT22;8716;52.268;20.968;2023-03-01T10:42:37;24.10;55.80
17200;DHT22;8716;52.268;20.968;2023-03-01T10:45:34;24.10;55.50
17200;DHT22;8716;52.268;20.968;2023-03-01T10:48:26;24.10;55.70
17200;DHT22;8716;52.268;20.968;2023-03-01T10:51:06;24.10;54.70
17200;DHT22;8716;52.268;20.968;2023-03-01T10:53:36;24.10;55.30
17200;DHT22;8716;52.268;20.968;2023-03-01T10:56:11;24.00;54.90
17200;DHT22;8716;52.268;20.968;2023-03-01T10:58:58;24.10;55.40
17200;DHT22;8716;52.268;20.968;2023-03-01T11:01:28;24.20;55.20
17200;DHT22;8716;52.268;20.968;2023-03-01T11:04:11;24.20;54.70
17200;DHT22;8716;52.268;20.968;2023-03-01T11:06:41;24.00;55.00
17200;DHT22;8716;52.268;20.968;2023-03-01T11:09:18;23.80;55.50
17200;DHT22;8716;52.268;20.968;2023-03-01T11:11:54;23.60;55.60
17200;DHT22;8716;52.268;20.968;2023-03-01T11:14:24;23.30;55.90
17200;DHT22;8716;52.268;20.968;2023-03-01T11:17:03;23.20;55.90
17200;DHT22;8716;52.268;20.968;2023-03-01T11:19:32;23.10;57.30
17200;DHT22;8716;52.268;20.968;2023-03-01T11:22:03;22.90;56.50
17200;DHT22;8716;52.268;20.968;2023-03-01T11:24:37;22.70;56.90
17200;DHT22;8716;52.268;20.968;2023-03-01T11:27:17;22.40;56.70
17200;DHT22;8716;52.268;20.968;2023-03-01T11:29:50;21.80;57.30
17200;DHT22;8716;52.268;20.968;2023-03-01T11:32:21;21.40;58.10
17200;DHT22;8716;52.268;20.968;2023-03-01T11:34:55;20.70;58.20
17200;DHT22;8716;52.268;20.968;2023-03-01T11:37:34;19.50;59.60
17200;DHT22;8716;52.268;20.968;2023-03-01T11:40:13;18.50;62.30
17200;DHT22;8716;52.268;20.968;2023-03-01T11:42:50;17.80;63.40
17200;DHT22;8716;52.268;20.968;2023-03-01T11:45:23;17.00;65.10
17200;DHT22;8716;52.268;20.968;2023-03-01T11:48:05;16.20;66.80
17200;DHT22;8716;52.268;20.968;2023-03-01T11:50:39;15.30;68.60
17200;DHT22;8716;52.268;20.968;2023-03-01T11:53:26;14.80;70.30
17200;DHT22;8716;52.268;20.968;2023-03-01T11:56:05;14.50;71.70
17200;DHT22;8716;52.268;20.968;2023-03-01T11:59:00;14.00;72.60
17200;DHT22;8716;52.268;20.968;2023-03-01T12:01:40;13.60;74.00
17200;DHT22;8716;52.268;20.968;2023-03-01T12:07:21;12.90;76.60
17200;DHT22;8716;52.268;20.968;2023-03-01T12:10:01;12.70;78.00
17200;DHT22;8716;52.268;20.968;2023-03-01T12:12:46;12.60;78.90
17200;DHT22;8716;52.268;20.968;2023-03-01T12:15:34;12.40;80.10
17200;DHT22;8716;52.268;20.968;2023-03-01T12:18:25;12.20;81.80
17200;DHT22;8716;52.268;20.968;2023-03-01T12:21:05;12.00;82.90
17200;DHT22;8716;52.268;20.968;2023-03-01T12:23:58;11.80;84.00
17200;DHT22;8716;52.268;20.968;2023-03-01T12:26:35;11.70;85.10
17200;DHT22;8716;52.268;20.968;2023-03-01T12:29:18;11.70;86.10
17200;DHT22;8716;52.268;20.968;2023-03-01T12:35:26;11.60;87.00
17200;DHT22;8716;52.268;20.968;2023-03-01T12:38:06;11.60;87.50
17200;DHT22;8716;52.268;20.968;2023-03-01T12:40:48;11.60;88.20
17200;DHT22;8716;52.268;20.968;2023-03-01T12:43:28;11.60;89.10
17200;DHT22;8716;52.268;20.968;2023-03-01T12:46:10;11.60;90.00
17200;DHT22;8716;52.268;20.968;2023-03-01T12:48:50;11.70;90.40
17200;DHT22;8716;52.268;20.968;2023-03-01T12:51:24;11.80;90.70
17200;DHT22;8716;52.268;20.968;2023-03-01T12:53:55;12.00;90.40
17200;DHT22;8716;52.268;20.968;2023-03-01T12:56:27;12.00;90.60
17200;DHT22;8716;52.268;20.968;2023-03-01T12:59:03;12.10;90.80
17200;DHT22;8716;52.268;20.968;2023-03-01T13:01:40;12.10;90.70
17200;DHT22;8716;52.268;20.968;2023-03-01T13:04:27;12.10;90.90
17200;DHT22;8716;52.268;20.968;2023-03-01T13:07:10;12.20;91.30
17200;DHT22;8716;52.268;20.968;2023-03-01T13:09:46;12.30;91.40
17200;DHT22;8716;52.268;20.968;2023-03-01T13:12:42;12.40;91.20
17200;DHT22;8716;52.268;20.968;2023-03-01T13:15:38;12.50;90.90
17200;DHT22;8716;52.268;20.968;2023-03-01T13:21:09;12.50;91.20
17200;DHT22;8716;52.268;20.968;2023-03-01T13:23:39;12.50;91.30
17200;DHT22;8716;52.268;20.968;2023-03-01T13:26:11;12.60;91.30
17200;DHT22;8716;52.268;20.968;2023-03-01T13:28:53;12.60;91.50
17200;DHT22;8716;52.268;20.968;2023-03-01T13:34:52;12.70;91.60
17200;DHT22;8716;52.268;20.968;2023-03-01T13:37:34;12.70;91.40
17200;DHT22;8716;52.268;20.968;2023-03-01T13:43:28;12.60;91.60
17200;DHT22;8716;52.268;20.968;2023-03-01T13:45:58;12.50;91.70
17200;DHT22;8716;52.268;20.968;2023-03-01T13:48:29;12.50;91.90
17200;DHT22;8716;52.268;20.968;2023-03-01T13:50:59;12.50;91.80
17200;DHT22;8716;52.268;20.968;2023-03-01T13:53:34;12.40;92.00
17200;DHT22;8716;52.268;20.968;2023-03-01T13:56:09;12.40;92.10
17200;DHT22;8716;52.268;20.968;2023-03-01T13:58:50;12.30;92.30
17200;DHT22;8716;52.268;20.968;2023-03-01T14:01:23;12.30;92.30
17200;DHT22;8716;52.268;20.968;2023-03-01T14:03:52;12.30;92.10
17200;DHT22;8716;52.268;20.968;2023-03-01T14:06:22;12.20;92.40
17200;DHT22;8716;52.268;20.968;2023-03-01T14:09:01;12.10;92.60
17200;DHT22;8716;52.268;20.968;2023-03-01T14:12:00;12.00;92.90
17200;DHT22;8716;52.268;20.968;2023-03-01T14:14:42;11.90;93.00
17200;DHT22;8716;52.268;20.968;2023-03-01T14:20:12;11.80;93.50
17200;DHT22;8716;52.268;20.968;2023-03-01T14:22:43;11.60;93.70
17200;DHT22;8716;52.268;20.968;2023-03-01T14:25:27;11.50;93.90
17200;DHT22;8716;52.268;20.968;2023-03-01T14:28:02;11.40;94.10
17200;DHT22;8716;52.268;20.968;2023-03-01T14:30:35;11.30;94.40
17200;DHT22;8716;52.268;20.968;2023-03-01T14:33:30;11.20;94.60
17200;DHT22;8716;52.268;20.968;2023-03-01T14:36:01;11.20;94.90
17200;DHT22;8716;52.268;20.968;2023-03-01T14:38:33;11.00;95.10
17200;DHT22;8716;52.268;20.968;2023-03-01T14:41:09;10.80;95.80
17200;DHT22;8716;52.268;20.968;2023-03-01T14:43:46;10.60;95.90
17200;DHT22;8716;52.268;20.968;2023-03-01T14:46:20;10.50;96.30
17200;DHT22;8716;52.268;20.968;2023-03-01T14:48:50;10.30;96.70
17200;DHT22;8716;52.268;20.968;2023-03-01T14:51:19;10.20;97.10
17200;DHT22;8716;52.268;20.968;2023-03-01T14:53:47;10.10;97.40
17200;DHT22;8716;52.268;20.968;2023-03-01T14:56:19;10.00;97.80
17200;DHT22;8716;52.268;20.968;2023-03-01T14:58:51;9.90;98.20
17200;DHT22;8716;52.268;20.968;2023-03-01T15:01:23;9.90;98.50
17200;DHT22;8716;52.268;20.968;2023-03-01T15:03:51;9.80;99.00
17200;DHT22;8716;52.268;20.968;2023-03-01T15:06:22;9.60;99.50
17200;DHT22;8716;52.268;20.968;2023-03-01T15:08:54;9.60;99.90
17200;DHT22;8716;52.268;20.968;2023-03-01T15:11:28;9.60;99.90
17200;DHT22;8716;52.268;20.968;2023-03-01T15:13:57;9.60;99.90
17200;DHT22;8716;52.268;20.968;2023-03-01T15:16:29;9.60;99.90
17200;DHT22;8716;52.268;20.968;2023-03-01T15:19:00;9.50;99.90
17200;DHT22;8716;52.268;20.968;2023-03-01T15:21:31;9.50;99.90
17200;DHT22;8716;52.268;20.968;2023-03-01T15:24:05;9.40;99.90
17200;DHT22;8716;52.268;20.968;2023-03-01T15:26:41;9.30;99.90
17200;DHT22;8716;52.268;20.968;2023-03-01T15:29:16;9.20;99.90
17200;DHT22;8716;52.268;20.968;2023-03-01T15:31:54;9.00;99.90
17200;DHT22;8716;52.268;20.968;2023-03-01T15:34:24;8.90;99.90
17200;DHT22;8716;52.268;20.968;2023-03-01T15:36:54;8.80;99.90
17200;DHT22;8716;52.268;20.968;2023-03-01T15:39:33;8.60;99.90
17200;DHT22;8716;52.268;20.968;2023-03-01T15:42:07;8.50;99.90
17200;DHT22;8716;52.268;20.968;2023-03-01T15:44:39;8.50;99.90
17200;DHT22;8716;52.268;20.968;2023-03-01T15:47:27;8.40;99.90
17200;DHT22;8716;52.268;20.968;2023-03-01T15:49:57;8.30;99.90
17200;DHT22;8716;52.268;20.968;2023-03-01T15:52:30;8.20;99.90
17200;DHT22;8716;52.268;20.968;2023-03-01T15:55:04;8.00;99.90
17200;DHT22;8716;52.268;20.968;2023-03-01T15:57:34;8.00;99.90
17200;DHT22;8716;52.268;20.968;2023-03-01T16:00:04;7.90;99.90
17200;DHT22;8716;52.268;20.968;2023-03-01T16:02:38;7.80;99.90
17200;DHT22;8716;52.268;20.968;2023-03-01T16:05:17;7.80;99.90
17200;DHT22;8716;52.268;20.968;2023-03-01T16:07:48;7.70;99.90
17200;DHT22;8716;52.268;20.968;2023-03-01T16:10:20;7.70;99.90
17200;DHT22;8716;52.268;20.968;2023-03-01T16:12:51;7.60;99.90
17200;DHT22;8716;52.268;20.968;2023-03-01T16:15:21;7.60;99.90
17200;DHT22;8716;52.268;20.968;2023-03-01T16:17:51;7.50;99.90
17200;DHT22;8716;52.268;20.968;2023-03-01T16:20:23;7.50;99.90
17200;DHT22;8716;52.268;20.968;2023-03-01T16:22:58;7.50;99.90
17200;DHT22;8716;52.268;20.968;2023-03-01T16:25:27;7.40;99.90
17200;DHT22;8716;52.268;20.968;2023-03-01T16:27:58;7.30;99.90